Kezdőlap
METAR-TAF:

METAR-TAF

Repülőterek :

Ørland, Norvégia

földrajzi szélesség: 63-42N, földrajzi hosszúság: 009-36E, magasság: 0 m

Jelenlegi meteorológiai megfigyelések

A jelentés 28 perccel ezelõtt készült, 10:20 UTC
Délkeleti szél 14 kt
Hőmérséklet 7°C
Páratartalom 57%
Légköri nyomás 1005 hPa
Látótávolság 10 km, vagy több
Kevés felhő 2000 lábon
Szakadozott felhőzet 18000 lábon

METAR: ENOL 251020Z 14014KT 9999 FEW020 BKN180 07/M01 Q1005 NOSIG

Idő: 12:48 (10:48 UTC)

Előrejelzés

A jelentés 5 órával és 48 perccel ezelõtt készült, 05:00 UTC
Az előrejelzés 25-én 06 óra UTC és 26-én 06 óra UTC között érvényes
Kelet-délkeleti szél 8 kt
Látótávolság 10 km, vagy több
Kevés felhő 2000 lábon
Szórványos felhőzet 12000 lábon
25-én 14 óra UTC és 26-én 02 óra UTC között ideiglenes
Kevés felhő 2000 lábon, Cumulonimbus.

TAF: ENOL 250500Z 2506/2606 12008KT 9999 FEW020 SCT120 TEMPO 2514/2602 FEW020CB

Meteorológiai megfigyelések és előrejelzések több, mint 4000 repülőtéren (METAR és TAF jelentéseket).

A térképen piros és sárga pontok jelzik az elérhető meteorológiai állomásokat.

Mozgassa az egeret a pont fölött, hogy megjelenjen az állomás neve.

Azután kattintson az időjárási megfigyelések és előrejelzések megtekintéséhez.

A térkép megváltoztatása: kattintson a fekete keresztel jelölt zöld gombra ráközelítéshez, a vonallal jelölt zöld gombra távolításhoz, vagy a zöld nyilakra a szomszédos térképek eléréséhez.


METAR-TAF: